Time;durP1;ratioP1;P1;durP2;ratioP2;P2;SDS_P1;SDS_P2;PMS_P1;PMS_P2;Temp;Humidity;BMP_temperature;BMP_pressure;BME280_temperature;BME280_humidity;BME280_pressure;Samples;Min_cycle;Max_cycle;Signal;HPM_P1;HPM_P2
2021/11/18 00:02:25;;;;;;;0.28;0.28;;;7.20;99.90;;;;;;5071683;28;20063;-74
2021/11/18 00:05:12;;;;;;;0.00;0.00;;;7.20;99.90;;;;;;5073111;28;20119;-74
2021/11/18 00:07:57;;;;;;;0.32;0.32;;;7.20;99.90;;;;;;5071671;28;20101;-74
2021/11/18 00:10:56;;;;;;;0.25;0.25;;;7.20;99.90;;;;;;5072916;28;20047;-74
2021/11/18 00:13:45;;;;;;;0.00;0.00;;;7.20;99.90;;;;;;5071072;28;20036;-74
2021/11/18 00:16:29;;;;;;;0.40;0.40;;;7.10;99.90;;;;;;5072533;28;20093;-74
2021/11/18 00:19:14;;;;;;;0.10;0.10;;;7.10;99.90;;;;;;5072050;28;20046;-73
2021/11/18 00:21:59;;;;;;;4.07;1.27;;;7.00;99.90;;;;;;5072415;28;20085;-73
2021/11/18 00:24:43;;;;;;;0.10;0.10;;;6.90;99.90;;;;;;5072654;28;20043;-74
2021/11/18 00:27:28;;;;;;;0.10;0.10;;;6.90;99.90;;;;;;5072601;28;20075;-74
2021/11/18 00:30:14;;;;;;;1.75;1.55;;;6.90;99.90;;;;;;5072479;28;20074;-73
2021/11/18 00:32:59;;;;;;;0.65;0.65;;;6.80;99.90;;;;;;5071726;28;20043;-74
2021/11/18 00:35:45;;;;;;;1.17;1.10;;;6.80;99.90;;;;;;5071670;28;20048;-74
2021/11/18 00:38:30;;;;;;;0.40;0.40;;;6.80;99.90;;;;;;5072752;28;20032;-74
2021/11/18 00:41:16;;;;;;;1.50;1.40;;;6.70;99.90;;;;;;5071425;28;20091;-74
2021/11/18 00:44:00;;;;;;;0.13;0.13;;;6.70;99.90;;;;;;5072328;28;20416;-74
2021/11/18 00:46:45;;;;;;;1.27;1.10;;;6.70;99.90;;;;;;5072237;28;20094;-74
2021/11/18 00:49:29;;;;;;;2.80;1.95;;;6.70;99.90;;;;;;5072195;28;20090;-74
2021/11/18 00:52:14;;;;;;;0.65;0.65;;;6.80;99.90;;;;;;5072190;28;20051;-74
2021/11/18 00:54:58;;;;;;;0.13;0.13;;;6.80;99.90;;;;;;5072318;28;20121;-74
2021/11/18 00:57:43;;;;;;;0.73;0.73;;;6.80;99.90;;;;;;5071204;28;20119;-73
2021/11/18 01:00:32;;;;;;;1.33;1.25;;;6.80;99.90;;;;;;5072260;28;20062;-74
2021/11/18 01:03:21;;;;;;;0.05;0.05;;;6.80;99.90;;;;;;5071327;28;20110;-74
2021/11/18 01:06:05;;;;;;;0.52;0.52;;;6.80;99.90;;;;;;5071138;28;20052;-74
2021/11/18 01:08:50;;;;;;;0.95;0.95;;;6.80;99.90;;;;;;5070964;28;20078;-74
2021/11/18 01:11:35;;;;;;;0.30;0.30;;;6.80;99.90;;;;;;5071182;28;20388;-74
2021/11/18 01:14:22;;;;;;;0.32;0.32;;;6.80;99.90;;;;;;5071082;28;20039;-74
2021/11/18 01:17:08;;;;;;;0.77;0.77;;;6.80;99.90;;;;;;5071055;28;20397;-74
2021/11/18 01:19:52;;;;;;;0.25;0.25;;;6.80;99.90;;;;;;5071145;28;20091;-73
2021/11/18 01:22:38;;;;;;;2.05;1.85;;;6.80;99.90;;;;;;5070848;28;20056;-73
2021/11/18 01:25:23;;;;;;;6.82;1.27;;;6.80;99.90;;;;;;5073002;28;20098;-73
2021/11/18 01:28:10;;;;;;;0.30;0.30;;;6.70;99.90;;;;;;5074674;28;20070;-73
2021/11/18 01:30:55;;;;;;;0.30;0.30;;;6.80;99.90;;;;;;5074861;28;20047;-73
2021/11/18 01:33:41;;;;;;;0.65;0.57;;;6.70;99.90;;;;;;5075845;28;20393;-73
2021/11/18 01:36:26;;;;;;;0.28;0.28;;;6.70;99.90;;;;;;5075808;28;20073;-74
2021/11/18 01:39:10;;;;;;;0.70;0.70;;;6.70;99.90;;;;;;5074511;28;20078;-74
2021/11/18 01:41:55;;;;;;;1.10;1.00;;;6.70;99.90;;;;;;5075715;28;20039;-73
2021/11/18 01:44:45;;;;;;;0.28;0.28;;;6.70;99.90;;;;;;5075611;28;20059;-73
2021/11/18 01:47:30;;;;;;;0.38;0.38;;;6.70;99.90;;;;;;5074583;28;20451;-74
2021/11/18 01:50:19;;;;;;;0.43;0.43;;;6.60;99.90;;;;;;5074408;28;20040;-74
2021/11/18 01:53:11;;;;;;;0.25;0.25;;;6.60;99.90;;;;;;5074071;28;20061;-73
2021/11/18 01:55:56;;;;;;;2.65;1.52;;;6.70;99.90;;;;;;5074442;28;20047;-73
2021/11/18 01:58:42;;;;;;;3.22;2.92;;;6.70;99.90;;;;;;5075203;28;20040;-74
2021/11/18 02:01:27;;;;;;;1.13;0.50;;;6.70;99.90;;;;;;5074307;28;20565;-74
2021/11/18 02:04:17;;;;;;;0.20;0.20;;;6.70;99.90;;;;;;5075013;28;20094;-74
2021/11/18 02:07:08;;;;;;;0.65;0.65;;;6.80;99.90;;;;;;5075321;28;20524;-74
2021/11/18 02:09:52;;;;;;;0.52;0.52;;;6.80;99.90;;;;;;5074843;28;20042;-73
2021/11/18 02:12:37;;;;;;;1.23;0.90;;;6.80;99.90;;;;;;5074085;28;20039;-74
2021/11/18 02:15:34;;;;;;;0.20;0.20;;;6.70;99.90;;;;;;5074180;28;20512;-74
2021/11/18 02:18:27;;;;;;;1.13;1.02;;;6.70;99.90;;;;;;5073891;28;20118;-74
2021/11/18 02:21:14;;;;;;;1.52;0.93;;;6.80;99.90;;;;;;5073841;28;20047;-74
2021/11/18 02:24:04;;;;;;;0.10;0.10;;;6.80;99.90;;;;;;5073538;28;20071;-74
2021/11/18 02:26:50;;;;;;;0.10;0.10;;;6.80;99.90;;;;;;5074892;28;20436;-73
2021/11/18 02:29:34;;;;;;;0.15;0.15;;;6.80;99.90;;;;;;5073549;28;20039;-73
2021/11/18 02:32:24;;;;;;;0.03;0.03;;;6.70;99.90;;;;;;5073619;28;20039;-74
2021/11/18 02:35:25;;;;;;;0.73;0.73;;;6.70;99.90;;;;;;5073566;28;20043;-73
2021/11/18 02:38:10;;;;;;;0.10;0.10;;;6.70;99.90;;;;;;5072554;28;20036;-74
2021/11/18 02:40:55;;;;;;;1.20;0.75;;;6.60;99.90;;;;;;5073592;28;20492;-74
2021/11/18 02:43:40;;;;;;;1.30;1.23;;;6.60;99.90;;;;;;5087868;28;20059;-73
2021/11/18 02:46:25;;;;;;;0.20;0.20;;;6.60;99.90;;;;;;5074457;28;20090;-75
2021/11/18 02:49:09;;;;;;;2.65;1.45;;;6.60;99.90;;;;;;5074018;28;20592;-74
2021/11/18 02:51:54;;;;;;;0.10;0.10;;;6.60;99.90;;;;;;5073451;28;20036;-74
2021/11/18 02:54:39;;;;;;;0.52;0.52;;;6.60;99.90;;;;;;5074167;28;20036;-73
2021/11/18 02:57:24;;;;;;;0.10;0.10;;;6.60;99.90;;;;;;5074098;28;20561;-74
2021/11/18 03:00:24;;;;;;;0.20;0.20;;;6.60;99.90;;;;;;5074027;28;20039;-74
2021/11/18 03:03:09;;;;;;;0.08;0.08;;;6.60;99.90;;;;;;5079832;28;20058;-74
2021/11/18 03:05:56;;;;;;;0.40;0.40;;;6.60;99.90;;;;;;5073765;28;20098;-74
2021/11/18 03:08:42;;;;;;;0.08;0.08;;;6.60;99.90;;;;;;5087251;28;20097;-74
2021/11/18 03:11:28;;;;;;;0.30;0.30;;;6.50;99.90;;;;;;5073869;28;20062;-74
2021/11/18 03:14:13;;;;;;;0.30;0.30;;;6.50;99.90;;;;;;5073149;28;20047;-74
2021/11/18 03:16:58;;;;;;;0.50;0.50;;;6.50;99.90;;;;;;5073886;28;20125;-75
2021/11/18 03:19:42;;;;;;;0.30;0.30;;;6.50;99.90;;;;;;5074178;28;20094;-74
2021/11/18 03:22:27;;;;;;;0.20;0.20;;;6.50;99.90;;;;;;5073502;28;20519;-74
2021/11/18 03:25:16;;;;;;;0.63;0.63;;;6.50;99.90;;;;;;5073539;28;20114;-74
2021/11/18 03:28:02;;;;;;;0.10;0.10;;;6.50;99.90;;;;;;5072895;28;20393;-74
2021/11/18 03:30:48;;;;;;;2.38;2.17;;;6.50;99.90;;;;;;5072501;28;20055;-73
2021/11/18 03:33:40;;;;;;;0.10;0.10;;;6.50;99.90;;;;;;5072585;28;20094;-75
2021/11/18 03:36:28;;;;;;;0.40;0.40;;;6.50;99.90;;;;;;5073284;28;20094;-74
2021/11/18 03:39:13;;;;;;;0.75;0.75;;;6.50;99.90;;;;;;5072861;28;20455;-74
2021/11/18 03:42:01;;;;;;;0.28;0.28;;;6.50;99.90;;;;;;5072344;28;20043;-74
2021/11/18 03:44:46;;;;;;;0.93;0.93;;;6.50;99.90;;;;;;5073269;28;20085;-74
2021/11/18 03:47:30;;;;;;;0.10;0.10;;;6.50;99.90;;;;;;5072038;28;20043;-74
2021/11/18 03:50:15;;;;;;;1.58;1.17;;;6.50;99.90;;;;;;5071645;28;20043;-74
2021/11/18 03:53:00;;;;;;;0.30;0.30;;;6.60;99.90;;;;;;5073503;28;20036;-74
2021/11/18 03:55:45;;;;;;;4.47;0.65;;;6.50;99.90;;;;;;5073116;28;20059;-74
2021/11/18 03:58:30;;;;;;;0.22;0.22;;;6.50;99.90;;;;;;5071720;28;20090;-75
2021/11/18 04:01:16;;;;;;;0.00;0.00;;;6.50;99.90;;;;;;5072909;28;20050;-74
2021/11/18 04:04:00;;;;;;;0.47;0.40;;;6.50;99.90;;;;;;5072855;28;20032;-75
2021/11/18 04:06:45;;;;;;;0.60;0.60;;;6.50;99.90;;;;;;5071893;28;20098;-75
2021/11/18 04:09:30;;;;;;;0.30;0.30;;;6.50;99.90;;;;;;5071467;28;20547;-75
2021/11/18 04:12:15;;;;;;;0.20;0.20;;;6.50;99.90;;;;;;5072769;28;20086;-74
2021/11/18 04:14:59;;;;;;;0.10;0.10;;;6.50;99.90;;;;;;5072797;28;20102;-74
2021/11/18 04:17:44;;;;;;;0.98;0.55;;;6.50;99.90;;;;;;5071736;28;20389;-74
2021/11/18 04:20:30;;;;;;;0.95;0.95;;;6.40;99.90;;;;;;5071605;28;20066;-74
2021/11/18 04:23:17;;;;;;;0.22;0.22;;;6.40;99.90;;;;;;5072369;28;20146;-74
2021/11/18 04:26:04;;;;;;;2.58;2.38;;;6.40;99.90;;;;;;5071664;28;20385;-74
2021/11/18 04:28:48;;;;;;;0.15;0.15;;;6.40;99.90;;;;;;5071569;28;20031;-74
2021/11/18 04:31:33;;;;;;;2.15;1.95;;;6.50;99.90;;;;;;5071762;28;20039;-74
2021/11/18 04:34:17;;;;;;;0.88;0.88;;;6.50;99.90;;;;;;5072528;28;20036;-74
2021/11/18 04:37:04;;;;;;;0.10;0.10;;;6.40;99.90;;;;;;5072499;28;20146;-74
2021/11/18 04:39:50;;;;;;;0.00;0.00;;;6.40;99.90;;;;;;5071436;28;20473;-74
2021/11/18 04:42:34;;;;;;;0.20;0.20;;;6.40;99.90;;;;;;5071385;28;20047;-74
2021/11/18 04:45:21;;;;;;;0.85;0.85;;;6.30;99.90;;;;;;5072668;28;20030;-74
2021/11/18 04:48:06;;;;;;;0.10;0.10;;;6.30;99.90;;;;;;5090035;28;20458;-74
2021/11/18 04:50:51;;;;;;;0.00;0.00;;;6.30;99.90;;;;;;5091364;28;20043;-74
2021/11/18 04:53:37;;;;;;;0.88;0.88;;;6.20;99.90;;;;;;5071064;28;20040;-73
2021/11/18 04:56:23;;;;;;;0.20;0.20;;;6.20;99.90;;;;;;5076978;28;20043;-73
2021/11/18 04:59:08;;;;;;;0.85;0.85;;;6.10;99.90;;;;;;5091391;28;20043;-74
2021/11/18 05:01:53;;;;;;;0.10;0.10;;;6.00;99.90;;;;;;5096606;28;20042;-74
2021/11/18 05:04:37;;;;;;;0.17;0.17;;;6.00;99.90;;;;;;5095648;28;20142;-75
2021/11/18 05:07:22;;;;;;;0.73;0.73;;;6.00;99.90;;;;;;5096464;28;20097;-74
2021/11/18 05:10:09;;;;;;;1.27;1.17;;;5.90;99.90;;;;;;5096599;28;20097;-74
2021/11/18 05:12:55;;;;;;;0.75;0.75;;;5.90;99.90;;;;;;5095492;28;20046;-74
2021/11/18 05:15:43;;;;;;;0.10;0.10;;;5.80;99.90;;;;;;5095426;28;20075;-74
2021/11/18 05:18:28;;;;;;;0.10;0.10;;;5.80;99.90;;;;;;5095272;28;20070;-74
2021/11/18 05:21:19;;;;;;;0.50;0.50;;;5.80;99.90;;;;;;5095896;28;20035;-77
2021/11/18 05:24:06;;;;;;;0.30;0.30;;;5.80;99.90;;;;;;5092213;28;20181;-76
2021/11/18 05:26:50;;;;;;;4.00;1.50;;;5.80;99.90;;;;;;5094678;28;20069;-73
2021/11/18 05:29:35;;;;;;;0.22;0.22;;;5.70;99.90;;;;;;5092297;28;20046;-73
2021/11/18 05:32:19;;;;;;;0.10;0.10;;;5.70;99.90;;;;;;5087466;28;20483;-76
2021/11/18 05:35:06;;;;;;;0.40;0.40;;;5.70;99.90;;;;;;5095332;28;20042;-73
2021/11/18 05:37:53;;;;;;;0.20;0.20;;;5.70;99.90;;;;;;5095975;28;20130;-76
2021/11/18 05:40:40;;;;;;;0.65;0.65;;;5.60;99.90;;;;;;5095802;28;20039;-75
2021/11/18 05:43:28;;;;;;;1.20;1.00;;;5.60;99.90;;;;;;5095998;28;20059;-75
2021/11/18 05:46:15;;;;;;;0.10;0.10;;;5.60;99.90;;;;;;5094673;28;20078;-77
2021/11/18 05:49:00;;;;;;;2.17;1.27;;;5.60;99.90;;;;;;5094655;28;20077;-76
2021/11/18 05:51:47;;;;;;;0.22;0.22;;;5.50;99.90;;;;;;5095757;28;20136;-78
2021/11/18 05:54:32;;;;;;;0.10;0.10;;;5.50;99.90;;;;;;5086338;28;20035;-73
2021/11/18 05:57:16;;;;;;;0.75;0.75;;;5.40;99.90;;;;;;5099472;28;20035;-73
2021/11/18 06:00:06;;;;;;;0.30;0.30;;;5.40;99.90;;;;;;5094564;28;20054;-76
2021/11/18 06:02:51;;;;;;;0.20;0.20;;;5.40;99.90;;;;;;5087806;28;20040;-73
2021/11/18 06:05:36;;;;;;;0.52;0.52;;;5.40;99.90;;;;;;5086695;28;20092;-77
2021/11/18 06:08:20;;;;;;;0.10;0.10;;;5.40;99.90;;;;;;5086433;28;20040;-77
2021/11/18 06:11:07;;;;;;;6.00;3.10;;;5.40;99.90;;;;;;5073095;28;20102;-76
2021/11/18 06:13:51;;;;;;;0.10;0.10;;;5.40;99.90;;;;;;5083160;28;20456;-74
2021/11/18 06:16:37;;;;;;;0.17;0.17;;;5.40;99.90;;;;;;5086389;28;20051;-73
2021/11/18 06:19:21;;;;;;;0.77;0.77;;;5.40;99.90;;;;;;5083485;28;20062;-74
2021/11/18 06:22:06;;;;;;;0.40;0.40;;;5.40;99.90;;;;;;5092874;28;20074;-73
2021/11/18 06:24:52;;;;;;;0.15;0.15;;;5.40;99.90;;;;;;5093243;28;20537;-73
2021/11/18 06:27:41;;;;;;;0.35;0.35;;;5.40;99.90;;;;;;5093461;28;20124;-73
2021/11/18 06:30:55;;;;;;;2.50;1.48;;;5.40;99.90;;;;;;5093463;28;20039;-76
2021/11/18 06:33:41;;;;;;;0.10;0.10;;;5.40;99.90;;;;;;5091632;28;20043;-77
2021/11/18 06:36:26;;;;;;;0.65;0.43;;;5.40;99.90;;;;;;5079449;28;20074;-76
2021/11/18 06:39:12;;;;;;;0.98;0.98;;;5.40;99.90;;;;;;5078117;28;20081;-76
2021/11/18 06:41:56;;;;;;;0.10;0.10;;;5.40;99.90;;;;;;5077044;28;20039;-77
2021/11/18 06:44:42;;;;;;;1.00;1.00;;;5.40;99.90;;;;;;5092625;28;20526;-77
2021/11/18 06:47:26;;;;;;;0.20;0.20;;;5.40;99.90;;;;;;5094365;28;20038;-77
2021/11/18 06:50:11;;;;;;;0.35;0.35;;;5.30;99.90;;;;;;5090620;28;20157;-76
2021/11/18 06:52:56;;;;;;;0.80;0.80;;;5.30;99.90;;;;;;5094209;28;20035;-76
2021/11/18 06:55:41;;;;;;;0.05;0.05;;;5.40;99.90;;;;;;5093670;28;20070;-76
2021/11/18 06:58:25;;;;;;;0.40;0.40;;;5.30;99.90;;;;;;5094175;28;20043;-76
2021/11/18 07:01:10;;;;;;;0.13;0.13;;;5.30;99.90;;;;;;5094072;28;20438;-76
2021/11/18 07:03:55;;;;;;;0.82;0.77;;;5.30;99.90;;;;;;5094029;28;20046;-76
2021/11/18 07:06:39;;;;;;;0.00;0.00;;;5.30;99.90;;;;;;5092741;28;20097;-75
2021/11/18 07:09:23;;;;;;;1.50;1.45;;;5.30;99.90;;;;;;5088041;28;20050;-75
2021/11/18 07:12:32;;;;;;;0.20;0.20;;;5.30;99.90;;;;;;5105931;28;20039;-76
2021/11/18 07:15:16;;;;;;;0.55;0.55;;;5.30;99.90;;;;;;5092787;28;20027;-74
2021/11/18 07:18:01;;;;;;;0.47;0.45;;;5.30;99.90;;;;;;5107435;28;20050;-75
2021/11/18 07:20:45;;;;;;;0.88;0.40;;;5.30;99.90;;;;;;5093562;28;20096;-75
2021/11/18 07:23:31;;;;;;;0.57;0.57;;;5.30;99.90;;;;;;5091944;28;20078;-74
2021/11/18 07:26:15;;;;;;;1.98;1.75;;;5.40;99.90;;;;;;5088446;28;20036;-74
2021/11/18 07:29:00;;;;;;;0.50;0.50;;;5.40;99.90;;;;;;5093557;28;20042;-74
2021/11/18 07:31:45;;;;;;;5.88;3.08;;;5.40;99.90;;;;;;5093319;28;20050;-73
2021/11/18 07:34:30;;;;;;;0.28;0.28;;;5.40;99.90;;;;;;5092360;28;20043;-74
2021/11/18 07:37:17;;;;;;;0.20;0.20;;;5.40;99.90;;;;;;5092589;28;20388;-74
2021/11/18 07:40:09;;;;;;;1.38;1.27;;;5.50;99.90;;;;;;5093492;28;20500;-74
2021/11/18 07:42:53;;;;;;;4.00;3.70;;;5.40;99.90;;;;;;5093154;28;20111;-74
2021/11/18 07:45:38;;;;;;;2.88;1.05;;;5.40;99.90;;;;;;5085566;28;20062;-69
2021/11/18 07:48:22;;;;;;;0.63;0.63;;;5.50;99.90;;;;;;5092090;28;20043;-74
2021/11/18 07:51:08;;;;;;;0.70;0.70;;;5.50;99.90;;;;;;5091830;28;20059;-74
2021/11/18 07:53:52;;;;;;;0.10;0.10;;;5.50;99.90;;;;;;5092360;28;20039;-74
2021/11/18 07:56:37;;;;;;;0.65;0.65;;;5.50;99.90;;;;;;5091447;28;20067;-74
2021/11/18 07:59:22;;;;;;;0.13;0.13;;;5.50;99.90;;;;;;5093284;28;20069;-74
2021/11/18 08:02:07;;;;;;;0.20;0.20;;;5.60;99.90;;;;;;5085571;28;20039;-74
2021/11/18 08:04:51;;;;;;;7.97;3.83;;;5.70;99.90;;;;;;5072756;28;20098;-74
2021/11/18 08:07:36;;;;;;;0.40;0.40;;;5.70;99.90;;;;;;5085916;28;20456;-75
2021/11/18 08:10:21;;;;;;;0.35;0.35;;;5.80;99.90;;;;;;5091754;28;20092;-74
2021/11/18 08:13:05;;;;;;;0.95;0.95;;;6.00;99.90;;;;;;5092773;28;20039;-74
2021/11/18 08:15:49;;;;;;;2.92;2.28;;;6.10;99.90;;;;;;5091293;28;20127;-75
2021/11/18 08:18:34;;;;;;;0.95;0.90;;;6.10;99.90;;;;;;5092627;28;20115;-75
2021/11/18 08:21:20;;;;;;;0.75;0.75;;;6.30;99.90;;;;;;5091165;28;20133;-75
2021/11/18 08:24:07;;;;;;;1.90;1.75;;;6.30;99.90;;;;;;5091183;28;20460;-74
2021/11/18 08:26:52;;;;;;;0.52;0.52;;;6.40;99.90;;;;;;5091412;28;20043;-74
2021/11/18 08:29:36;;;;;;;0.10;0.10;;;6.40;99.90;;;;;;5091845;28;20512;-76
2021/11/18 08:32:20;;;;;;;0.80;0.80;;;6.50;99.90;;;;;;5091529;28;20081;-77
2021/11/18 08:35:06;;;;;;;4.20;1.58;;;6.60;99.90;;;;;;5080626;28;20051;-77
2021/11/18 08:37:50;;;;;;;0.38;0.38;;;6.70;99.90;;;;;;5072508;28;20420;-77
2021/11/18 08:40:38;;;;;;;1.02;0.65;;;6.70;99.90;;;;;;5091668;28;20074;-77
2021/11/18 08:43:24;;;;;;;2.70;2.50;;;6.70;99.90;;;;;;5091937;28;20134;-77
2021/11/18 08:46:11;;;;;;;0.28;0.28;;;6.70;99.90;;;;;;5092029;28;20093;-77
2021/11/18 08:49:00;;;;;;;0.40;0.40;;;6.80;99.90;;;;;;5091348;28;20214;-77
2021/11/18 08:51:45;;;;;;;0.77;0.28;;;6.80;99.90;;;;;;5077013;28;20089;-77
2021/11/18 08:54:29;;;;;;;0.32;0.32;;;6.90;99.90;;;;;;5091161;28;20530;-77
2021/11/18 08:57:15;;;;;;;0.38;0.38;;;6.90;99.90;;;;;;5090803;28;20043;-76
2021/11/18 08:59:59;;;;;;;0.15;0.15;;;7.00;99.90;;;;;;5091923;28;20078;-78
2021/11/18 09:02:44;;;;;;;0.17;0.17;;;7.10;99.90;;;;;;5091808;28;20035;-78
2021/11/18 09:05:30;;;;;;;0.20;0.20;;;7.10;99.90;;;;;;5091955;28;20105;-77
2021/11/18 09:08:16;;;;;;;0.47;0.47;;;7.10;99.90;;;;;;5092254;28;20066;-78
2021/11/18 09:11:05;;;;;;;0.38;0.38;;;7.10;99.90;;;;;;5090959;28;20561;-78
2021/11/18 09:13:51;;;;;;;1.85;1.75;;;7.10;99.90;;;;;;5090750;28;20062;-78
2021/11/18 09:16:39;;;;;;;0.55;0.55;;;7.10;99.90;;;;;;5091771;28;20181;-78
2021/11/18 09:19:28;;;;;;;3.80;1.70;;;7.20;99.90;;;;;;5091327;28;20129;-78
2021/11/18 09:22:13;;;;;;;1.77;1.58;;;7.20;99.90;;;;;;5091922;28;20443;-78
2021/11/18 09:25:02;;;;;;;0.73;0.73;;;7.30;99.90;;;;;;5092100;28;20488;-78
2021/11/18 09:27:53;;;;;;;3.03;2.83;;;7.40;99.90;;;;;;5090855;28;20107;-78
2021/11/18 09:30:53;;;;;;;0.20;0.20;;;7.40;99.90;;;;;;5084503;28;20444;-78
2021/11/18 09:33:37;;;;;;;0.20;0.20;;;7.50;99.90;;;;;;5070737;28;20047;-78
2021/11/18 09:36:25;;;;;;;0.40;0.40;;;7.60;99.90;;;;;;5090658;28;20067;-77
2021/11/18 09:39:12;;;;;;;0.20;0.20;;;7.70;99.90;;;;;;5091051;28;20106;-78
2021/11/18 09:42:12;;;;;;;1.15;1.05;;;8.00;99.90;;;;;;5090549;28;20035;-78
2021/11/18 09:45:17;;;;;;;0.50;0.50;;;8.20;99.90;;;;;;5091910;28;20047;-78
2021/11/18 09:48:53;;;;;;;1.25;1.15;;;8.30;99.90;;;;;;5094011;28;20080;-78
2021/11/18 09:52:11;;;;;;;1.92;1.83;;;8.30;99.90;;;;;;5094040;28;20530;-78
2021/11/18 09:55:16;;;;;;;0.80;0.75;;;8.20;99.90;;;;;;5075133;28;20043;-78
2021/11/18 09:58:28;;;;;;;0.10;0.10;;;8.30;99.90;;;;;;5075231;28;20043;-78
2021/11/18 10:01:54;;;;;;;1.70;0.80;;;8.20;99.90;;;;;;5090726;28;20070;-78
2021/11/18 10:04:51;;;;;;;0.10;0.10;;;8.40;99.90;;;;;;5082398;28;20066;-77
2021/11/18 10:07:57;;;;;;;0.63;0.63;;;8.50;99.90;;;;;;5095117;28;20150;-77
2021/11/18 10:11:20;;;;;;;0.38;0.38;;;8.60;99.90;;;;;;5094481;28;20050;-77
2021/11/18 10:14:36;;;;;;;0.75;0.75;;;8.90;99.90;;;;;;5101009;28;20051;-77
2021/11/18 10:17:22;;;;;;;0.15;0.15;;;8.90;99.90;;;;;;5101944;28;20071;-77
2021/11/18 10:20:19;;;;;;;0.63;0.63;;;9.10;99.90;;;;;;5100668;28;20051;-77
2021/11/18 10:23:11;;;;;;;2.50;2.28;;;9.00;99.90;;;;;;5080640;28;20101;-78
2021/11/18 10:25:58;;;;;;;;;;;9.10;99.90;;;;;;5093120;28;20074;-77
2021/11/18 10:29:17;;;;;;;4.40;0.85;;;9.10;99.90;;;;;;5100551;28;19919;-77
2021/11/18 10:32:04;;;;;;;0.40;0.40;;;9.30;99.90;;;;;;5100013;28;20043;-78
2021/11/18 10:35:25;;;;;;;0.35;0.35;;;9.50;99.90;;;;;;5101600;28;20372;-78
2021/11/18 10:38:33;;;;;;;0.10;0.10;;;9.50;99.90;;;;;;5096267;28;20166;-77
2021/11/18 10:41:27;;;;;;;0.13;0.13;;;10.10;99.90;;;;;;5088989;28;20080;-77
2021/11/18 10:44:30;;;;;;;0.40;0.40;;;10.00;99.90;;;;;;5093851;28;20065;-78
2021/11/18 10:47:40;;;;;;;1.02;0.75;;;11.20;99.90;;;;;;5094433;28;20075;-72
2021/11/18 10:50:30;;;;;;;0.75;0.75;;;11.50;99.90;;;;;;5089829;28;20089;-71
2021/11/18 10:53:26;;;;;;;0.25;0.25;;;12.00;99.90;;;;;;5094316;28;20047;-75
2021/11/18 10:56:17;;;;;;;12.30;2.28;;;12.00;99.90;;;;;;5094580;28;20515;-75
2021/11/18 10:59:38;;;;;;;0.20;0.20;;;11.60;99.90;;;;;;5093716;28;20085;-75
2021/11/18 11:02:33;;;;;;;1.30;1.20;;;11.50;99.90;;;;;;5093902;28;20047;-75
2021/11/18 11:05:37;;;;;;;0.90;0.90;;;10.60;99.90;;;;;;5094561;28;20047;-74
2021/11/18 11:08:32;;;;;;;0.80;0.77;;;11.10;99.90;;;;;;5092750;28;20082;-75
2021/11/18 11:11:52;;;;;;;0.80;0.80;;;10.90;99.90;;;;;;5094431;28;20439;-74
2021/11/18 11:14:54;;;;;;;0.38;0.38;;;11.10;99.90;;;;;;5089088;28;20079;-74
2021/11/18 11:18:15;;;;;;;0.45;0.43;;;10.40;99.90;;;;;;5093346;28;20038;-74
2021/11/18 11:21:24;;;;;;;0.90;0.90;;;10.20;99.90;;;;;;5093963;28;20408;-74
2021/11/18 11:24:20;;;;;;;0.40;0.40;;;10.30;99.90;;;;;;5093237;28;20051;-74
2021/11/18 11:27:43;;;;;;;1.90;0.75;;;11.00;99.90;;;;;;5093397;28;20046;-74
2021/11/18 11:31:17;;;;;;;1.65;1.23;;;11.30;99.90;;;;;;5093026;28;20035;-74
2021/11/18 11:34:33;;;;;;;0.32;0.32;;;11.60;99.90;;;;;;5072649;28;20385;-74
2021/11/18 11:37:43;;;;;;;0.20;0.20;;;11.50;99.90;;;;;;5082180;28;20043;-74
2021/11/18 11:40:59;;;;;;;2.57;1.70;;;11.50;99.90;;;;;;5079664;28;20526;-74
2021/11/18 11:44:34;;;;;;;1.55;1.45;;;10.90;99.90;;;;;;5093029;28;20312;-74
2021/11/18 11:47:30;;;;;;;0.77;0.43;;;10.80;99.90;;;;;;5092015;28;20111;-74
2021/11/18 11:50:37;;;;;;;0.10;0.10;;;10.60;99.90;;;;;;5093126;28;20059;-74
2021/11/18 11:53:55;;;;;;;0.32;0.32;;;10.70;99.90;;;;;;5093150;28;20495;-74
2021/11/18 11:56:45;;;;;;;1.80;1.38;;;10.80;99.90;;;;;;5072921;28;20067;-74
2021/11/18 11:59:41;;;;;;;0.32;0.32;;;10.90;99.90;;;;;;5074995;28;20550;-74
2021/11/18 12:02:57;;;;;;;0.10;0.10;;;10.90;99.90;;;;;;5085287;28;20126;-75
2021/11/18 12:05:59;;;;;;;0.47;0.40;;;10.70;99.90;;;;;;5072918;28;20524;-74
2021/11/18 12:08:48;;;;;;;0.22;0.22;;;10.70;99.90;;;;;;5091632;28;20058;-74
2021/11/18 12:12:20;;;;;;;2.33;1.75;;;10.70;99.90;;;;;;5092984;28;20059;-74
2021/11/18 12:15:16;;;;;;;0.00;0.00;;;10.80;99.90;;;;;;5092800;28;20078;-74
2021/11/18 12:18:21;;;;;;;0.88;0.70;;;10.70;99.90;;;;;;5091552;28;20035;-74
2021/11/18 12:21:05;;;;;;;0.00;0.00;;;10.80;99.90;;;;;;5085817;28;20047;-74
2021/11/18 12:24:14;;;;;;;0.17;0.17;;;10.90;99.90;;;;;;5077015;28;20066;-75
2021/11/18 12:27:25;;;;;;;0.45;0.45;;;11.50;99.90;;;;;;5072242;28;20100;-77
2021/11/18 12:30:57;;;;;;;0.20;0.20;;;11.40;99.90;;;;;;5079699;28;20086;-73
2021/11/18 12:33:46;;;;;;;0.17;0.10;;;11.10;99.90;;;;;;5088064;28;20562;-74
2021/11/18 12:37:25;;;;;;;0.10;0.10;;;11.40;99.90;;;;;;5077033;28;20047;-74
2021/11/18 12:40:42;;;;;;;0.10;0.10;;;11.70;99.90;;;;;;5099007;28;20136;-75
2021/11/18 12:44:13;;;;;;;0.15;0.15;;;12.10;99.90;;;;;;5087099;28;20110;-74
2021/11/18 12:47:50;;;;;;;0.55;0.55;;;12.00;99.90;;;;;;5092185;28;20039;-75
2021/11/18 12:50:43;;;;;;;1.90;1.23;;;11.50;99.90;;;;;;5071012;28;20105;-74
2021/11/18 12:53:39;;;;;;;2.67;0.95;;;11.40;99.90;;;;;;5079538;28;20035;-75
2021/11/18 12:56:51;;;;;;;2.28;1.75;;;11.20;99.90;;;;;;5091407;28;20043;-75
2021/11/18 12:59:39;;;;;;;0.82;0.82;;;11.10;99.90;;;;;;5090887;28;20400;-75
2021/11/18 13:02:27;;;;;;;0.80;0.80;;;11.30;99.90;;;;;;5092126;28;20051;-75
2021/11/18 13:05:31;;;;;;;0.75;0.75;;;11.30;99.90;;;;;;5092074;28;20043;-75
2021/11/18 13:08:34;;;;;;;0.55;0.55;;;11.10;99.90;;;;;;5092372;28;20434;-75
2021/11/18 13:11:27;;;;;;;0.00;0.00;;;10.60;99.90;;;;;;5092020;28;20034;-75
2021/11/18 13:14:48;;;;;;;0.90;0.85;;;10.40;99.90;;;;;;5092156;28;20381;-74
2021/11/18 13:18:02;;;;;;;1.08;0.65;;;10.30;99.90;;;;;;5091372;28;20380;-73
2021/11/18 13:21:45;;;;;;;0.25;0.25;;;10.20;99.90;;;;;;5071474;28;20555;-75
2021/11/18 13:25:09;;;;;;;1.75;1.13;;;10.00;99.90;;;;;;5075541;28;20070;-75
2021/11/18 13:28:15;;;;;;;0.52;0.52;;;10.00;99.90;;;;;;5075594;28;20116;-75
2021/11/18 13:31:03;;;;;;;0.40;0.40;;;10.30;99.90;;;;;;5081934;28;20035;-75
2021/11/18 13:33:52;;;;;;;0.20;0.20;;;10.50;99.90;;;;;;5074774;28;20169;-75
2021/11/18 13:36:38;;;;;;;0.17;0.17;;;10.60;99.90;;;;;;5075602;28;20055;-75
2021/11/18 13:40:09;;;;;;;0.70;0.70;;;10.50;99.90;;;;;;5091985;28;20035;-75
2021/11/18 13:43:00;;;;;;;10.02;2.88;;;10.40;99.90;;;;;;5095727;28;20051;-75
2021/11/18 13:46:09;;;;;;;0.37;0.37;;;10.50;99.90;;;;;;5095097;28;20080;-75
2021/11/18 13:49:19;;;;;;;0.30;0.30;;;10.40;99.90;;;;;;5094250;28;20126;-75
2021/11/18 13:52:40;;;;;;;0.08;0.08;;;10.50;99.90;;;;;;5095240;28;20031;-75
2021/11/18 13:55:31;;;;;;;0.10;0.10;;;10.80;99.90;;;;;;5096058;28;20554;-75
2021/11/18 13:58:32;;;;;;;0.80;0.80;;;11.10;99.90;;;;;;5086371;28;20169;-75
2021/11/18 14:01:24;;;;;;;0.30;0.30;;;11.20;99.90;;;;;;5094613;28;20078;-75
2021/11/18 14:04:26;;;;;;;1.08;0.98;;;11.20;99.90;;;;;;5079946;28;20054;-75
2021/11/18 14:07:13;;;;;;;0.20;0.20;;;11.20;99.90;;;;;;5094535;28;20042;-75
2021/11/18 14:10:06;;;;;;;1.02;0.95;;;11.00;99.90;;;;;;5087197;28;20078;-75
2021/11/18 14:13:05;;;;;;;0.73;0.73;;;10.90;99.90;;;;;;5073953;28;20062;-75
2021/11/18 14:16:00;;;;;;;1.20;0.57;;;10.90;99.90;;;;;;5085253;28;20100;-75
2021/11/18 14:19:25;;;;;;;0.00;0.00;;;10.90;99.90;;;;;;5094092;28;20537;-75
2021/11/18 14:22:12;;;;;;;1.30;1.20;;;10.90;99.90;;;;;;5094617;28;20728;-75
2021/11/18 14:25:19;;;;;;;4.28;0.85;;;11.10;99.90;;;;;;5093937;28;20039;-75
2021/11/18 14:28:30;;;;;;;0.10;0.10;;;11.10;99.90;;;;;;5086888;28;20074;-74
2021/11/18 14:31:38;;;;;;;0.07;0.07;;;10.80;99.90;;;;;;5093947;28;20039;-75
2021/11/18 14:35:00;;;;;;;0.68;0.68;;;10.90;99.90;;;;;;5093983;28;20082;-75
2021/11/18 14:37:57;;;;;;;0.88;0.82;;;10.70;99.90;;;;;;5095031;28;20385;-74
2021/11/18 14:40:56;;;;;;;0.10;0.10;;;10.50;99.90;;;;;;5089385;28;20032;-74
2021/11/18 14:44:11;;;;;;;0.82;0.80;;;10.40;99.90;;;;;;5094631;28;20035;-74
2021/11/18 14:47:28;;;;;;;0.20;0.20;;;10.40;99.90;;;;;;5069372;28;20043;-74
2021/11/18 14:50:35;;;;;;;0.05;0.05;;;10.30;99.90;;;;;;5094062;28;20039;-72
2021/11/18 14:53:26;;;;;;;2.92;0.47;;;10.20;99.90;;;;;;5094013;28;20103;-74
2021/11/18 14:56:28;;;;;;;0.88;0.88;;;10.20;99.90;;;;;;5093326;28;20086;-74
2021/11/18 14:59:14;;;;;;;0.57;0.57;;;10.10;99.90;;;;;;5087576;28;20055;-74
2021/11/18 15:02:01;;;;;;;0.05;0.05;;;9.90;99.90;;;;;;5073925;28;20048;-75
2021/11/18 15:04:46;;;;;;;1.30;0.90;;;9.70;99.90;;;;;;5078306;28;20086;-74
2021/11/18 15:07:31;;;;;;;4.18;1.98;;;9.70;99.90;;;;;;5073111;28;20048;-75
2021/11/18 15:10:16;;;;;;;0.13;0.13;;;9.60;99.90;;;;;;5092578;28;20038;-74